createdAt,value
2022-10-01T00:00:02.934Z,81.5
2022-10-01T00:03:03.071Z,81.5
2022-10-01T00:06:02.942Z,81.5
2022-10-01T00:09:02.979Z,81.5
2022-10-01T00:12:03.096Z,81.5
2022-10-01T00:15:10.688Z,81.5
2022-10-01T00:18:02.922Z,81.3
2022-10-01T00:21:03.417Z,81.4
2022-10-01T00:24:02.960Z,81.4
2022-10-01T00:27:02.922Z,81.4
2022-10-01T00:30:02.972Z,81.4
2022-10-01T00:33:02.883Z,81.4
2022-10-01T00:36:02.945Z,81.4
2022-10-01T00:39:03.303Z,81.4
2022-10-01T00:42:02.898Z,81.4
2022-10-01T00:45:02.966Z,81.4
2022-10-01T00:48:03.011Z,83.1
2022-10-01T00:51:02.908Z,83.1
2022-10-01T00:54:02.987Z,83.1
2022-10-01T00:57:02.881Z,83.1
2022-10-01T01:00:02.936Z,83.1
2022-10-01T01:03:02.909Z,83.1
2022-10-01T01:06:02.922Z,83.1
2022-10-01T01:09:02.962Z,83.1
2022-10-01T01:12:02.909Z,83.1
2022-10-01T01:15:03.049Z,83.1
2022-10-01T01:18:02.942Z,83.2
2022-10-01T01:21:02.871Z,83.2
2022-10-01T01:24:02.878Z,83.2
2022-10-01T01:27:02.909Z,83.2
2022-10-01T01:30:02.921Z,83.1
2022-10-01T01:33:02.876Z,83.1
2022-10-01T01:36:02.905Z,83.1
2022-10-01T01:39:02.922Z,83.1
2022-10-01T01:42:02.909Z,83.1
2022-10-01T01:45:03.027Z,84.5
2022-10-01T01:48:02.942Z,84.5
2022-10-01T01:51:02.956Z,84.5
2022-10-01T01:54:02.891Z,84.5
2022-10-01T01:57:02.910Z,84.5
2022-10-01T02:00:02.920Z,84.5
2022-10-01T02:03:02.991Z,83.2
2022-10-01T02:06:02.929Z,83.2
2022-10-01T02:09:02.973Z,83.2
2022-10-01T02:12:03.120Z,83.2
2022-10-01T02:15:02.936Z,82.3
2022-10-01T02:18:02.937Z,82.3
2022-10-01T02:21:02.911Z,82.3
2022-10-01T02:24:02.938Z,82.5
2022-10-01T02:27:02.899Z,82.5
2022-10-01T02:30:02.951Z,82.5
2022-10-01T02:33:02.941Z,82.5
2022-10-01T02:36:02.948Z,82.5
2022-10-01T02:39:02.945Z,82.5
2022-10-01T02:42:02.912Z,82.5
2022-10-01T02:45:02.899Z,82.5
2022-10-01T02:48:02.858Z,82.5
2022-10-01T02:51:02.876Z,82.5
2022-10-01T02:54:02.978Z,82.5
2022-10-01T02:57:02.899Z,82
2022-10-01T03:00:02.961Z,82
2022-10-01T03:03:03.098Z,82
2022-10-01T03:06:02.935Z,82
2022-10-01T03:09:02.920Z,82
2022-10-01T03:12:02.947Z,82
2022-10-01T03:15:02.948Z,80.9
2022-10-01T03:18:02.970Z,80.9
2022-10-01T03:21:02.928Z,80.9
2022-10-01T03:24:02.931Z,80.9
2022-10-01T03:27:02.916Z,80
2022-10-01T03:30:02.984Z,80
2022-10-01T03:33:02.983Z,80
2022-10-01T03:36:02.896Z,80
2022-10-01T03:39:02.929Z,78.2
2022-10-01T03:42:02.973Z,78.2
2022-10-01T03:45:02.903Z,78.2
2022-10-01T03:48:02.902Z,78.2
2022-10-01T03:51:02.920Z,78.2
2022-10-01T03:54:02.914Z,78.2
2022-10-01T03:57:02.922Z,78.2
2022-10-01T04:00:03.046Z,78.2
2022-10-01T04:03:03.109Z,76.9
2022-10-01T04:06:02.871Z,76.9
2022-10-01T04:09:02.907Z,76.9
2022-10-01T04:12:02.926Z,76.9
2022-10-01T04:15:02.903Z,76.2
2022-10-01T04:18:02.889Z,76.2
2022-10-01T04:21:02.889Z,76.2
2022-10-01T04:24:02.890Z,76.2
2022-10-01T04:27:02.890Z,76.2
2022-10-01T04:30:02.963Z,76.2
2022-10-01T04:33:02.927Z,75.4
2022-10-01T04:36:02.889Z,75.4
2022-10-01T04:39:05.273Z,75.4
2022-10-01T04:42:02.920Z,75.4
2022-10-01T04:45:02.948Z,75.4
2022-10-01T04:48:02.947Z,75.4
2022-10-01T04:51:02.936Z,75.4
2022-10-01T04:54:02.944Z,75.4
2022-10-01T04:57:02.868Z,74.8
2022-10-01T05:00:02.961Z,74.8
2022-10-01T05:03:02.856Z,74.8
2022-10-01T05:06:02.911Z,74.8
2022-10-01T05:09:02.914Z,74.8
2022-10-01T05:12:02.959Z,74.2
2022-10-01T05:15:02.945Z,74.1
2022-10-01T05:18:02.901Z,74.1
2022-10-01T05:21:02.975Z,74.1
2022-10-01T05:24:03.526Z,74.1
2022-10-01T05:27:02.911Z,74.1
2022-10-01T05:30:02.937Z,73.9
2022-10-01T05:33:03.016Z,73.9
2022-10-01T05:36:02.955Z,73.9
2022-10-01T05:39:02.900Z,73.9
2022-10-01T05:42:08.764Z,74.5
2022-10-01T05:45:02.970Z,74.5
2022-10-01T05:48:02.993Z,74.5
2022-10-01T05:51:02.941Z,74.5
2022-10-01T05:54:02.984Z,74.5
2022-10-01T05:57:02.931Z,74.5
2022-10-01T06:00:03.007Z,74.5
2022-10-01T06:03:03.241Z,74.5
2022-10-01T06:06:02.941Z,76.6
2022-10-01T06:09:02.955Z,76.6
2022-10-01T06:12:02.953Z,76.6
2022-10-01T06:15:02.924Z,76.6
2022-10-01T06:18:03.074Z,78.7
2022-10-01T06:21:02.931Z,78.7
2022-10-01T06:24:02.965Z,78.7
2022-10-01T06:27:02.995Z,78.7
2022-10-01T06:30:02.937Z,80
2022-10-01T06:33:02.978Z,80
2022-10-01T06:36:02.981Z,80
2022-10-01T06:39:03.008Z,80
2022-10-01T06:42:02.964Z,80
2022-10-01T06:45:02.918Z,80
2022-10-01T06:48:02.991Z,80
2022-10-01T06:51:02.899Z,80
2022-10-01T06:54:02.913Z,80
2022-10-01T06:57:03.075Z,81.2
2022-10-01T07:00:03.041Z,81.2
2022-10-01T07:03:03.031Z,81.2
2022-10-01T07:06:02.960Z,81.2
2022-10-01T07:09:02.941Z,81.2
2022-10-01T07:12:03.029Z,81.2
2022-10-01T07:15:02.912Z,82.5
2022-10-01T07:18:02.981Z,82.5
2022-10-01T07:21:02.935Z,82.5
2022-10-01T07:24:02.942Z,82.5
2022-10-01T07:27:09.703Z,82.5
2022-10-01T07:30:02.956Z,83.3
2022-10-01T07:33:02.924Z,83.3
2022-10-01T07:36:02.977Z,83.3
2022-10-01T07:39:02.967Z,83.3
2022-10-01T07:42:02.930Z,83.3
2022-10-01T07:45:02.987Z,83.3
2022-10-01T07:48:02.961Z,83.3
2022-10-01T07:51:02.946Z,83.3
2022-10-01T07:54:02.987Z,84.1
2022-10-01T07:57:02.976Z,84.1
2022-10-01T08:00:03.042Z,84.1
2022-10-01T08:03:02.953Z,84.1
2022-10-01T08:06:02.974Z,84.1
2022-10-01T08:09:02.962Z,84.1
2022-10-01T08:12:02.911Z,84.1
2022-10-01T08:15:02.982Z,84.1
2022-10-01T08:18:02.995Z,84.1
2022-10-01T08:21:03.015Z,84.1
2022-10-01T08:24:02.924Z,84.1
2022-10-01T08:27:02.981Z,84.1
2022-10-01T08:30:03.037Z,85
2022-10-01T08:33:02.937Z,85
2022-10-01T08:36:02.934Z,85
2022-10-01T08:39:02.964Z,85
2022-10-01T08:42:02.948Z,85
2022-10-01T08:45:02.985Z,85
2022-10-01T08:48:02.965Z,85
2022-10-01T08:51:02.911Z,85
2022-10-01T08:54:03.003Z,85
2022-10-01T08:57:02.924Z,85
2022-10-01T09:00:03.080Z,85
2022-10-01T09:03:02.905Z,85
2022-10-01T09:06:02.939Z,85
2022-10-01T09:09:02.934Z,85
2022-10-01T09:12:02.985Z,85.2
2022-10-01T09:15:02.989Z,85.2
2022-10-01T09:18:03.002Z,85.2
2022-10-01T09:21:02.957Z,85.2
2022-10-01T09:24:02.918Z,85.2
2022-10-01T09:27:02.982Z,85.2
2022-10-01T09:30:02.977Z,85.2
2022-10-01T09:33:03.048Z,85.2
2022-10-01T09:36:02.972Z,85.2
2022-10-01T09:39:03.121Z,83.5
2022-10-01T09:42:02.972Z,83.7
2022-10-01T09:45:02.953Z,83.7
2022-10-01T09:48:02.985Z,83.7
2022-10-01T09:51:02.972Z,83.7
2022-10-01T09:54:02.959Z,83.7
2022-10-01T09:57:02.957Z,83.7
2022-10-01T10:00:03.031Z,83.7
2022-10-01T10:03:03.438Z,83.7
2022-10-01T10:06:02.992Z,83.7
2022-10-01T10:09:03.009Z,83.7
2022-10-01T10:12:02.922Z,83.7
2022-10-01T10:15:02.967Z,83.7
2022-10-01T10:18:02.997Z,83.7
2022-10-01T10:21:02.948Z,83.7
2022-10-01T10:24:02.976Z,83.7
2022-10-01T10:27:03.043Z,83.7
2022-10-01T10:30:03.047Z,83.7
2022-10-01T10:33:02.924Z,81.5
2022-10-01T10:36:03.026Z,81.4
2022-10-01T10:39:02.980Z,81.4
2022-10-01T10:42:02.965Z,81.4
2022-10-01T10:45:03.025Z,81.4
2022-10-01T10:48:02.962Z,81.2
2022-10-01T10:51:03.014Z,81.2
2022-10-01T10:54:03.041Z,81.2
2022-10-01T10:57:02.916Z,81.2
2022-10-01T11:00:03.051Z,81.2
2022-10-01T11:03:02.947Z,81.2
2022-10-01T11:06:03.015Z,81.2
2022-10-01T11:09:03.042Z,81.2
2022-10-01T11:12:03.114Z,81.2
2022-10-01T11:15:02.936Z,81.2
2022-10-01T11:18:03.015Z,81.2
2022-10-01T11:21:02.935Z,81.2
2022-10-01T11:24:03.012Z,81.2
2022-10-01T11:27:02.944Z,81.2
2022-10-01T11:30:03.018Z,81.2
2022-10-01T11:33:02.953Z,81.3
2022-10-01T11:36:03.064Z,81.3
2022-10-01T11:39:02.948Z,81.8
2022-10-01T11:42:02.944Z,81.8
2022-10-01T11:45:03.457Z,81.8
2022-10-01T11:48:02.969Z,81.8
2022-10-01T11:51:03.011Z,81.8
2022-10-01T11:54:02.936Z,80.9
2022-10-01T11:57:02.917Z,80.9
2022-10-01T12:00:03.102Z,80.9
2022-10-01T12:03:02.913Z,80.9
2022-10-01T12:06:02.986Z,80.9
2022-10-01T12:09:02.909Z,80.9
2022-10-01T12:12:02.974Z,80.9
2022-10-01T12:15:09.362Z,80.9
2022-10-01T12:18:03.137Z,80.9
2022-10-01T12:21:03.001Z,80.9
2022-10-01T12:24:02.931Z,80.9
2022-10-01T12:27:02.943Z,80.9
2022-10-01T12:30:02.995Z,80.8
2022-10-01T12:33:02.900Z,80.8
2022-10-01T12:36:02.995Z,80.8
2022-10-01T12:39:03.043Z,80.6
2022-10-01T12:42:02.920Z,80.6
2022-10-01T12:45:02.953Z,80.6
2022-10-01T12:48:02.917Z,80.6
2022-10-01T12:51:02.970Z,80.6
2022-10-01T12:54:03.003Z,80.6
2022-10-01T12:57:02.947Z,80.6
2022-10-01T13:00:03.018Z,80.6
2022-10-01T13:03:02.981Z,80.6
2022-10-01T13:06:02.992Z,80
2022-10-01T13:09:02.950Z,80
2022-10-01T13:12:03.026Z,80
2022-10-01T13:15:02.952Z,80
2022-10-01T13:18:02.984Z,80
2022-10-01T13:21:02.980Z,80
2022-10-01T13:24:03.039Z,80
2022-10-01T13:27:02.916Z,80
2022-10-01T13:30:03.080Z,79.4
2022-10-01T13:33:02.970Z,79.4
2022-10-01T13:36:02.974Z,79.4
2022-10-01T13:39:02.986Z,79.4
2022-10-01T13:42:03.009Z,79.4
2022-10-01T13:45:03.000Z,79.4
2022-10-01T13:48:02.946Z,79
2022-10-01T13:51:02.950Z,79
2022-10-01T13:54:02.956Z,79
2022-10-01T13:57:02.892Z,79
2022-10-01T14:00:03.043Z,79
2022-10-01T14:03:03.177Z,79
2022-10-01T14:06:02.980Z,79
2022-10-01T14:09:02.978Z,79
2022-10-01T14:12:03.013Z,79
2022-10-01T14:15:02.982Z,79
2022-10-01T14:18:02.956Z,79
2022-10-01T14:21:02.944Z,79
2022-10-01T14:24:02.994Z,78.8
2022-10-01T14:27:02.954Z,78.8
2022-10-01T14:30:02.970Z,78.8
2022-10-01T14:33:02.963Z,78.8
2022-10-01T14:36:02.924Z,78.8
2022-10-01T14:39:02.930Z,78.8
2022-10-01T14:42:03.009Z,78.8
2022-10-01T14:45:02.921Z,78.8
2022-10-01T14:48:02.987Z,78.8
2022-10-01T14:51:02.900Z,78.8
2022-10-01T14:54:03.018Z,78.8
2022-10-01T14:57:05.082Z,78.8
2022-10-01T15:00:03.125Z,79.6
2022-10-01T15:03:03.032Z,79.6
2022-10-01T15:06:02.962Z,79.6
2022-10-01T15:09:03.013Z,79.6
2022-10-01T15:12:02.919Z,75.4
2022-10-01T15:15:02.930Z,75.4
2022-10-01T15:18:02.960Z,75.4
2022-10-01T15:21:02.939Z,78
2022-10-01T15:24:02.953Z,78
2022-10-01T15:27:02.968Z,78
2022-10-01T15:30:03.233Z,78
2022-10-01T15:33:02.927Z,78
2022-10-01T15:36:03.019Z,78
2022-10-01T15:39:03.037Z,78
2022-10-01T15:42:02.960Z,80.3
2022-10-01T15:45:02.935Z,80.3
2022-10-01T15:48:02.956Z,80.3
2022-10-01T15:51:02.957Z,80.3
2022-10-01T15:54:02.967Z,80.3
2022-10-01T15:57:03.010Z,80.3
2022-10-01T16:00:02.948Z,80.3
2022-10-01T16:03:03.019Z,80.3
2022-10-01T16:06:02.970Z,81.1
2022-10-01T16:09:02.960Z,81.1
2022-10-01T16:12:02.950Z,81.5
2022-10-01T16:15:02.982Z,81.4
2022-10-01T16:18:02.959Z,81.4
2022-10-01T16:21:03.209Z,81.4
2022-10-01T16:24:02.908Z,81.4
2022-10-01T16:27:02.938Z,81.4
2022-10-01T16:30:08.143Z,81.4
2022-10-01T16:33:02.906Z,81.5
2022-10-01T16:36:02.921Z,81.5
2022-10-01T16:39:02.972Z,81.5
2022-10-01T16:42:26.375Z,81.4
2022-10-01T16:45:02.979Z,81.4
2022-10-01T16:48:02.975Z,81.4
2022-10-01T16:51:02.954Z,81.4
2022-10-01T16:54:03.039Z,81.4
2022-10-01T16:57:02.948Z,81.4
2022-10-01T17:00:02.955Z,82
2022-10-01T17:03:02.901Z,82
2022-10-01T17:06:03.037Z,82.2
2022-10-01T17:09:02.898Z,82.2
2022-10-01T17:12:02.897Z,82.3
2022-10-01T17:15:02.981Z,82.3
2022-10-01T17:18:02.886Z,82.3
2022-10-01T17:21:03.039Z,82.3
2022-10-01T17:24:02.979Z,82.3
2022-10-01T17:27:02.914Z,82.3
2022-10-01T17:30:02.964Z,82.3
2022-10-01T17:33:02.892Z,83.5
2022-10-01T17:36:02.944Z,83.5
2022-10-01T17:39:02.884Z,83.5
2022-10-01T17:42:02.905Z,83.5
2022-10-01T17:45:02.918Z,83.5
2022-10-01T17:48:02.946Z,84
2022-10-01T17:51:03.058Z,84
2022-10-01T17:54:02.907Z,84
2022-10-01T17:57:02.925Z,84.3
2022-10-01T18:00:03.102Z,84.3
2022-10-01T18:03:03.116Z,84.3
2022-10-01T18:06:02.882Z,84.3
2022-10-01T18:09:02.948Z,84.8
2022-10-01T18:12:02.958Z,84.8
2022-10-01T18:15:02.928Z,84.8
2022-10-01T18:21:02.961Z,84.8
2022-10-01T18:24:07.300Z,84.8
2022-10-01T18:27:02.962Z,85.2
2022-10-01T18:30:02.921Z,85.2
2022-10-01T18:33:02.965Z,85.2
2022-10-01T18:36:02.943Z,85.2
2022-10-01T18:39:02.910Z,85.3
2022-10-01T18:42:02.975Z,85.3
2022-10-01T18:45:02.934Z,85.3
2022-10-01T18:48:02.956Z,85.3
2022-10-01T18:51:02.936Z,85.3
2022-10-01T18:54:03.151Z,85.3
2022-10-01T18:57:02.923Z,85.5
2022-10-01T19:00:02.957Z,85.5
2022-10-01T19:03:02.908Z,85.5
2022-10-01T19:06:02.929Z,85.5
2022-10-01T19:09:02.971Z,85.3
2022-10-01T19:12:02.925Z,85.3
2022-10-01T19:15:02.941Z,85.3
2022-10-01T19:18:02.931Z,85.3
2022-10-01T19:21:02.963Z,85.3
2022-10-01T19:24:02.934Z,85.3
2022-10-01T19:27:03.035Z,85.3
2022-10-01T19:30:02.916Z,85.8
2022-10-01T19:33:02.946Z,85.8
2022-10-01T19:36:02.954Z,85.8
2022-10-01T19:39:02.978Z,85.8
2022-10-01T19:42:02.925Z,86
2022-10-01T19:45:02.924Z,86
2022-10-01T19:48:02.935Z,86
2022-10-01T19:51:02.899Z,85.7
2022-10-01T19:54:02.965Z,85.7
2022-10-01T19:57:02.902Z,85.7
2022-10-01T20:00:02.952Z,85.7
2022-10-01T20:03:02.926Z,85.5
2022-10-01T20:06:02.913Z,85.5
2022-10-01T20:09:02.906Z,85.7
2022-10-01T20:12:02.959Z,85.7
2022-10-01T20:15:02.919Z,85.7
2022-10-01T20:18:02.922Z,85.7
2022-10-01T20:21:02.919Z,85.7
2022-10-01T20:24:02.921Z,85.7
2022-10-01T20:27:02.947Z,85.7
2022-10-01T20:30:02.969Z,85.6
2022-10-01T20:33:02.879Z,85.6
2022-10-01T20:36:02.903Z,85.6
2022-10-01T20:39:02.946Z,85.6
2022-10-01T20:42:02.933Z,85.6
2022-10-01T20:45:03.083Z,85.6
2022-10-01T20:48:02.932Z,85.6
2022-10-01T20:51:02.925Z,85.8
2022-10-01T20:54:02.954Z,85.8
2022-10-01T20:57:02.919Z,85.8
2022-10-01T21:00:02.996Z,85.8
2022-10-01T21:03:02.932Z,85.8
2022-10-01T21:06:03.082Z,85.7
2022-10-01T21:09:02.886Z,85.7
2022-10-01T21:12:03.011Z,85.7
2022-10-01T21:15:02.913Z,85.7
2022-10-01T21:18:02.933Z,85.7
2022-10-01T21:21:03.008Z,85.8
2022-10-01T21:24:02.932Z,85.8
2022-10-01T21:27:02.905Z,85.8
2022-10-01T21:30:02.984Z,85.8
2022-10-01T21:33:05.027Z,85.8
2022-10-01T21:36:03.659Z,85.7
2022-10-01T21:39:02.887Z,85.7
2022-10-01T21:42:03.018Z,85.7
2022-10-01T21:45:02.938Z,85.7
2022-10-01T21:48:02.912Z,85.7
2022-10-01T21:51:02.896Z,85.7
2022-10-01T21:54:02.912Z,85.7
2022-10-01T21:57:02.886Z,85.7
2022-10-01T22:00:04.367Z,85.7
2022-10-01T22:03:02.904Z,85.7
2022-10-01T22:06:02.940Z,85.7
2022-10-01T22:09:02.932Z,85.7
2022-10-01T22:12:02.902Z,86.1
2022-10-01T22:15:02.904Z,86.1
2022-10-01T22:18:02.999Z,86.1
2022-10-01T22:21:02.889Z,86.1
2022-10-01T22:24:02.922Z,86.1
2022-10-01T22:27:02.926Z,86.1
2022-10-01T22:30:02.969Z,86.1
2022-10-01T22:33:02.922Z,86
2022-10-01T22:36:02.890Z,86
2022-10-01T22:39:02.940Z,86
2022-10-01T22:42:02.942Z,86
2022-10-01T22:45:02.895Z,86
2022-10-01T22:48:02.952Z,86
2022-10-01T22:51:02.874Z,86
2022-10-01T22:54:02.934Z,86
2022-10-01T22:57:02.898Z,86
2022-10-01T23:00:02.971Z,86
2022-10-01T23:03:02.923Z,86.1
2022-10-01T23:06:02.939Z,86.1
2022-10-01T23:09:02.965Z,86.1
2022-10-01T23:12:02.956Z,86.1
2022-10-01T23:15:02.911Z,86.1
2022-10-01T23:18:02.914Z,86.1
2022-10-01T23:21:02.894Z,86.1
2022-10-01T23:24:02.906Z,86.1
2022-10-01T23:27:02.916Z,86.2
2022-10-01T23:30:03.031Z,86.2
2022-10-01T23:33:02.939Z,86.2
2022-10-01T23:36:02.964Z,86.2
2022-10-01T23:39:02.950Z,86.2
2022-10-01T23:42:02.938Z,86.2
2022-10-01T23:45:02.924Z,86.3
2022-10-01T23:48:02.987Z,86.3
2022-10-01T23:51:02.974Z,86.3
2022-10-01T23:54:02.955Z,86.3
2022-10-01T23:57:02.915Z,86.3
